Time;durP1;ratioP1;P1;durP2;ratioP2;P2;SDS_P1;SDS_P2;PMS_P1;PMS_P2;Temp;Humidity;BMP_temperature;BMP_pressure;BME280_temperature;BME280_humidity;BME280_pressure;Samples;Min_cycle;Max_cycle;Signal;HPM_P1;HPM_P2
2022/08/27 00:01:16;;;;;;;1999.90;999.90;;;18.20;99.90;;;;;;5034707;28;20206;-67
2022/08/27 00:03:44;;;;;;;1999.90;999.90;;;18.20;99.90;;;;;;5035265;28;20205;-66
2022/08/27 00:06:13;;;;;;;1999.90;999.90;;;18.20;99.90;;;;;;5034921;28;20213;-67
2022/08/27 00:08:41;;;;;;;1999.90;999.90;;;18.30;99.90;;;;;;5034590;28;20540;-67
2022/08/27 00:11:08;;;;;;;1999.90;999.90;;;18.30;99.90;;;;;;5034925;28;20291;-67
2022/08/27 00:13:35;;;;;;;1999.90;999.90;;;18.30;99.90;;;;;;5034792;28;20209;-67
2022/08/27 00:16:05;;;;;;;1999.90;999.90;;;18.30;99.90;;;;;;5034764;28;20199;-67
2022/08/27 00:18:34;;;;;;;1999.90;999.90;;;18.30;99.90;;;;;;5034754;28;20220;-67
2022/08/27 00:21:02;;;;;;;1999.90;999.90;;;18.30;99.90;;;;;;5034263;28;20210;-67
2022/08/27 00:23:30;;;;;;;1999.90;999.90;;;18.30;99.90;;;;;;5034619;28;20196;-67
2022/08/27 00:25:57;;;;;;;1999.90;999.90;;;18.30;99.90;;;;;;5034450;28;20210;-68
2022/08/27 00:28:25;;;;;;;1999.90;999.90;;;18.20;99.90;;;;;;5034511;28;20206;-67
2022/08/27 00:30:54;;;;;;;1999.90;999.90;;;18.20;99.90;;;;;;5034500;28;20200;-67
2022/08/27 00:33:22;;;;;;;1999.90;999.90;;;18.20;99.90;;;;;;5033527;28;20710;-67
2022/08/27 00:35:51;;;;;;;1999.90;999.90;;;18.30;99.90;;;;;;5034389;28;20202;-68
2022/08/27 00:38:18;;;;;;;1999.90;999.90;;;18.30;99.90;;;;;;5034350;28;20204;-68
2022/08/27 00:40:45;;;;;;;1999.90;999.90;;;18.20;99.90;;;;;;5034291;28;20233;-68
2022/08/27 00:43:13;;;;;;;1999.90;999.90;;;18.20;99.90;;;;;;5033927;28;20549;-67
2022/08/27 00:45:43;;;;;;;1999.90;999.90;;;18.20;99.90;;;;;;5033821;28;20215;-67
2022/08/27 00:48:14;;;;;;;1999.90;999.90;;;18.10;99.90;;;;;;5034116;28;20200;-67
2022/08/27 00:50:45;;;;;;;1999.90;999.90;;;18.20;99.90;;;;;;5033962;28;20202;-68
2022/08/27 00:53:18;;;;;;;1999.90;999.90;;;18.10;99.90;;;;;;5033833;28;20187;-68
2022/08/27 00:55:57;;;;;;;1999.90;999.90;;;18.10;99.90;;;;;;5033421;28;20738;-68
2022/08/27 00:58:28;;;;;;;1999.90;999.90;;;18.10;99.90;;;;;;5033977;28;20187;-67
2022/08/27 01:00:57;;;;;;;1999.90;999.90;;;18.10;99.90;;;;;;5033964;28;20194;-67
2022/08/27 01:03:25;;;;;;;1999.90;999.90;;;18.10;99.90;;;;;;5033545;28;20215;-66
2022/08/27 01:05:55;;;;;;;1999.90;999.90;;;18.10;99.90;;;;;;5033522;28;20192;-68
2022/08/27 01:08:25;;;;;;;1999.90;999.90;;;18.10;99.90;;;;;;5033790;28;20208;-67
2022/08/27 01:10:56;;;;;;;1999.90;999.90;;;18.00;99.90;;;;;;5033640;28;20213;-67
2022/08/27 01:13:26;;;;;;;1999.90;999.90;;;18.00;99.90;;;;;;5033387;28;20530;-67
2022/08/27 01:15:57;;;;;;;1999.90;999.90;;;18.00;99.90;;;;;;5033220;28;20220;-67
2022/08/27 01:18:25;;;;;;;1999.90;999.90;;;17.90;99.90;;;;;;5033325;28;20182;-66
2022/08/27 01:20:56;;;;;;;1999.90;999.90;;;17.80;99.90;;;;;;5033114;28;20546;-66
2022/08/27 01:23:31;;;;;;;1999.90;999.90;;;17.70;99.90;;;;;;5033479;28;20236;-66
2022/08/27 01:26:02;;;;;;;1999.90;999.90;;;17.60;99.90;;;;;;5033078;28;20672;-67
2022/08/27 01:28:32;;;;;;;1999.90;999.90;;;17.50;99.90;;;;;;5033379;28;20183;-66
2022/08/27 01:30:59;;;;;;;1999.90;999.90;;;17.40;99.90;;;;;;5033336;28;20192;-66
2022/08/27 01:33:26;;;;;;;1999.90;999.90;;;17.40;99.90;;;;;;5033232;28;20201;-66
2022/08/27 01:35:53;;;;;;;1999.90;999.90;;;17.40;99.90;;;;;;5032903;28;20556;-67
2022/08/27 01:38:23;;;;;;;1999.90;999.90;;;17.30;99.90;;;;;;5032895;28;20206;-67
2022/08/27 01:40:50;;;;;;;1999.90;999.90;;;17.30;99.90;;;;;;5032865;28;20197;-67
2022/08/27 01:43:19;;;;;;;1999.90;999.90;;;17.30;99.90;;;;;;5032467;28;20208;-67
2022/08/27 01:45:48;;;;;;;1999.90;999.90;;;17.30;99.90;;;;;;5032952;28;20200;-66
2022/08/27 01:48:16;;;;;;;1999.90;999.90;;;17.30;99.90;;;;;;5033045;28;20206;-66
2022/08/27 01:50:44;;;;;;;1999.90;999.90;;;17.40;99.90;;;;;;5032941;28;20583;-67
2022/08/27 01:53:13;;;;;;;1999.90;999.90;;;17.30;99.90;;;;;;5032962;28;20197;-68
2022/08/27 01:55:42;;;;;;;1999.90;999.90;;;17.30;99.90;;;;;;5032395;28;20225;-67
2022/08/27 01:58:09;;;;;;;1999.90;999.90;;;17.30;99.90;;;;;;5032827;28;20205;-66
2022/08/27 02:00:41;;;;;;;1999.90;999.90;;;17.30;99.90;;;;;;5032865;28;20197;-66
2022/08/27 02:03:10;;;;;;;1999.90;999.90;;;17.40;99.90;;;;;;5032541;28;20183;-65
2022/08/27 02:05:38;;;;;;;1999.90;999.90;;;17.40;99.90;;;;;;5032433;28;20543;-65
2022/08/27 02:08:06;;;;;;;1999.90;999.90;;;17.40;99.90;;;;;;5032783;28;20200;-66
2022/08/27 02:10:38;;;;;;;1999.90;999.90;;;17.50;99.90;;;;;;5032654;28;20561;-65
2022/08/27 02:13:07;;;;;;;1999.90;999.90;;;17.50;99.90;;;;;;5032459;28;20253;-65
2022/08/27 02:15:35;;;;;;;1999.90;999.90;;;17.60;99.90;;;;;;5032613;28;20213;-65
2022/08/27 02:18:04;;;;;;;1999.90;999.90;;;17.60;99.90;;;;;;5032631;28;20204;-65
2022/08/27 02:20:32;;;;;;;1999.90;999.90;;;17.60;99.90;;;;;;5032756;28;20213;-65
2022/08/27 02:22:59;;;;;;;1999.90;999.90;;;17.60;99.90;;;;;;5032230;28;20203;-65
2022/08/27 02:25:27;;;;;;;1999.90;999.90;;;17.60;99.90;;;;;;5032434;28;20218;-65
2022/08/27 02:27:58;;;;;;;1999.90;999.90;;;17.60;99.90;;;;;;5032192;28;20214;-65
2022/08/27 02:30:27;;;;;;;1999.90;999.90;;;17.60;99.90;;;;;;5032487;28;20188;-66
2022/08/27 02:32:54;;;;;;;1999.90;999.90;;;17.70;99.90;;;;;;5032441;28;20205;-65
2022/08/27 02:35:24;;;;;;;1999.90;999.90;;;17.70;99.90;;;;;;5032367;28;20219;-66
2022/08/27 02:37:52;;;;;;;1999.90;999.90;;;17.70;99.90;;;;;;5032087;28;20665;-66
2022/08/27 02:40:22;;;;;;;1999.90;999.90;;;17.70;99.90;;;;;;5032423;28;20212;-66
2022/08/27 02:42:49;;;;;;;1999.90;999.90;;;17.70;99.90;;;;;;5032439;28;20189;-66
2022/08/27 02:45:18;;;;;;;1999.90;999.90;;;17.70;99.90;;;;;;5031992;28;20551;-66
2022/08/27 02:47:45;;;;;;;1999.90;999.90;;;17.60;99.90;;;;;;5032379;28;20212;-65
2022/08/27 02:50:13;;;;;;;1999.90;999.90;;;17.60;99.90;;;;;;5032231;28;20206;-66
2022/08/27 02:52:44;;;;;;;1999.90;999.90;;;17.60;99.90;;;;;;5032306;28;20206;-66
2022/08/27 02:55:12;;;;;;;1999.90;999.90;;;17.60;99.90;;;;;;5032894;28;20660;-66
2022/08/27 02:57:39;;;;;;;1999.90;999.90;;;17.70;99.90;;;;;;5036295;28;20233;-66
2022/08/27 03:00:09;;;;;;;1999.90;999.90;;;17.60;99.90;;;;;;5036237;28;20205;-66
2022/08/27 03:02:36;;;;;;;1999.90;999.90;;;17.60;99.90;;;;;;5036149;28;20204;-65
2022/08/27 03:05:03;;;;;;;1999.90;999.90;;;17.70;99.90;;;;;;5036091;28;20224;-65
2022/08/27 03:07:30;;;;;;;1999.90;999.90;;;17.60;99.90;;;;;;5036015;28;20199;-65
2022/08/27 03:09:59;;;;;;;1999.90;999.90;;;17.70;99.90;;;;;;5035643;28;20204;-65
2022/08/27 03:12:26;;;;;;;1999.90;999.90;;;17.60;99.90;;;;;;5035926;28;20199;-65
2022/08/27 03:14:53;;;;;;;1999.90;999.90;;;17.60;99.90;;;;;;5035558;28;20552;-66
2022/08/27 03:20:11;;;;;;;1999.90;999.90;;;17.60;99.90;;;;;;5014974;28;20203;-65
2022/08/27 03:22:39;;;;;;;1999.90;999.90;;;17.70;99.90;;;;;;5035426;28;20200;-65
2022/08/27 03:25:08;;;;;;;1999.90;999.90;;;17.60;99.90;;;;;;5035649;28;20201;-65
2022/08/27 03:27:36;;;;;;;1999.90;999.90;;;17.60;99.90;;;;;;5035698;28;20206;-66
2022/08/27 03:30:03;;;;;;;1999.90;999.90;;;17.60;99.90;;;;;;5035659;28;20208;-65
2022/08/27 03:32:30;;;;;;;1999.90;999.90;;;17.60;99.90;;;;;;5035265;28;20203;-65
2022/08/27 03:34:58;;;;;;;1999.90;999.90;;;17.60;99.90;;;;;;5035151;28;20811;-66
2022/08/27 03:37:25;;;;;;;1999.90;999.90;;;17.60;99.90;;;;;;5035223;28;20209;-66
2022/08/27 03:39:53;;;;;;;1999.90;999.90;;;17.60;99.90;;;;;;5035445;28;20198;-66
2022/08/27 03:42:22;;;;;;;1999.90;999.90;;;17.50;99.90;;;;;;5035379;28;20211;-66
2022/08/27 03:44:49;;;;;;;1999.90;999.90;;;17.50;99.90;;;;;;5035327;28;20204;-66
2022/08/27 03:47:16;;;;;;;1999.90;999.90;;;17.50;99.90;;;;;;5035361;28;20203;-65
2022/08/27 03:49:44;;;;;;;1999.90;999.90;;;17.50;99.90;;;;;;5035311;28;20222;-66
2022/08/27 03:52:13;;;;;;;1999.90;999.90;;;17.50;99.90;;;;;;5035234;28;20196;-67
2022/08/27 03:54:40;;;;;;;1999.90;999.90;;;17.50;99.90;;;;;;5034698;28;20209;-66
2022/08/27 03:57:07;;;;;;;1999.90;999.90;;;17.50;99.90;;;;;;5034738;28;20254;-66
2022/08/27 03:59:36;;;;;;;1999.90;999.90;;;17.40;99.90;;;;;;5035057;28;20202;-65
2022/08/27 04:02:04;;;;;;;1999.90;999.90;;;17.40;99.90;;;;;;5034502;28;20676;-65
2022/08/27 04:04:31;;;;;;;1999.90;999.90;;;17.40;99.90;;;;;;5034689;28;20199;-64
2022/08/27 04:06:58;;;;;;;1999.90;999.90;;;17.40;99.90;;;;;;5033670;28;20207;-65
2022/08/27 04:09:25;;;;;;;1999.90;999.90;;;17.40;99.90;;;;;;5034846;28;20204;-65
2022/08/27 04:11:52;;;;;;;1999.90;999.90;;;17.40;99.90;;;;;;5034572;28;20199;-66
2022/08/27 04:14:19;;;;;;;1999.90;999.90;;;17.40;99.90;;;;;;5034530;28;20203;-67
2022/08/27 04:16:48;;;;;;;1999.90;999.90;;;17.40;99.90;;;;;;5034382;28;20228;-66
2022/08/27 04:19:15;;;;;;;1999.90;999.90;;;17.40;99.90;;;;;;5034398;28;20250;-65
2022/08/27 04:21:42;;;;;;;1999.90;999.90;;;17.40;99.90;;;;;;5033813;28;20203;-66
2022/08/27 04:24:10;;;;;;;1999.90;999.90;;;17.40;99.90;;;;;;5032009;28;20191;-65
2022/08/27 04:26:39;;;;;;;1999.90;999.90;;;17.30;99.90;;;;;;5032999;28;20192;-66
2022/08/27 04:29:07;;;;;;;1999.90;999.90;;;17.40;99.90;;;;;;5033663;28;20192;-66
2022/08/27 04:31:34;;;;;;;1999.90;999.90;;;17.40;99.90;;;;;;5029644;28;20192;-66
2022/08/27 04:34:05;;;;;;;1999.90;999.90;;;17.40;99.90;;;;;;5024965;28;20200;-65
2022/08/27 04:36:32;;;;;;;1999.90;999.90;;;17.40;99.90;;;;;;5023265;28;20210;-66
2022/08/27 04:38:59;;;;;;;1999.90;999.90;;;17.40;99.90;;;;;;5022771;28;20191;-66
2022/08/27 04:41:27;;;;;;;1999.90;999.90;;;17.40;99.90;;;;;;5026322;28;20197;-66
2022/08/27 04:43:56;;;;;;;1999.90;999.90;;;17.40;99.90;;;;;;5023069;28;20188;-66
2022/08/27 04:46:27;;;;;;;1999.90;999.90;;;17.40;99.90;;;;;;5023271;28;20689;-66
2022/08/27 04:48:55;;;;;;;1999.90;999.90;;;17.30;99.90;;;;;;5016615;28;20200;-66
2022/08/27 04:51:24;;;;;;;1999.90;999.90;;;17.30;99.90;;;;;;5016723;28;20190;-66
2022/08/27 04:53:51;;;;;;;1999.90;999.90;;;17.30;99.90;;;;;;5025143;28;20669;-66
2022/08/27 04:56:21;;;;;;;1999.90;999.90;;;17.30;99.90;;;;;;5033426;28;20228;-65
2022/08/27 04:58:50;;;;;;;1999.90;999.90;;;17.30;99.90;;;;;;5033814;28;20218;-66
2022/08/27 05:01:19;;;;;;;1999.90;999.90;;;17.30;99.90;;;;;;5033702;28;20199;-65
2022/08/27 05:03:46;;;;;;;1999.90;999.90;;;17.40;99.90;;;;;;5034026;28;20215;-64
2022/08/27 05:06:13;;;;;;;1999.90;999.90;;;17.40;99.90;;;;;;5033986;28;20241;-64
2022/08/27 05:08:42;;;;;;;1999.90;999.90;;;17.40;99.90;;;;;;5033518;28;20699;-65
2022/08/27 05:11:11;;;;;;;1999.90;999.90;;;17.30;99.90;;;;;;5033425;28;20200;-65
2022/08/27 05:13:39;;;;;;;1999.90;999.90;;;17.30;99.90;;;;;;5024354;28;20198;-65
2022/08/27 05:16:08;;;;;;;1999.90;999.90;;;17.30;99.90;;;;;;5022683;28;20212;-65
2022/08/27 05:18:36;;;;;;;1999.90;999.90;;;17.30;99.90;;;;;;5022326;28;20198;-65
2022/08/27 05:21:04;;;;;;;1999.90;999.90;;;17.40;99.90;;;;;;5022099;28;20198;-65
2022/08/27 05:23:31;;;;;;;1999.90;999.90;;;17.40;99.90;;;;;;5030596;28;20195;-65
2022/08/27 05:26:00;;;;;;;1999.90;999.90;;;17.40;99.90;;;;;;5031426;28;20197;-67
2022/08/27 05:28:28;;;;;;;1999.90;999.90;;;17.40;99.90;;;;;;5022174;28;20195;-66
2022/08/27 05:31:02;;;;;;;1999.90;999.90;;;17.40;99.90;;;;;;5022663;28;20190;-66
2022/08/27 05:33:30;;;;;;;1999.90;999.90;;;17.40;99.90;;;;;;5021511;28;20194;-65
2022/08/27 05:35:59;;;;;;;1999.90;999.90;;;17.40;99.90;;;;;;5021645;28;20610;-67
2022/08/27 05:38:29;;;;;;;1999.90;999.90;;;17.40;99.90;;;;;;5024239;28;20255;-66
2022/08/27 05:41:04;;;;;;;1999.90;999.90;;;17.40;99.90;;;;;;5021587;28;20548;-66
2022/08/27 05:43:32;;;;;;;1999.90;999.90;;;17.40;99.90;;;;;;5021575;28;20195;-65
2022/08/27 05:46:02;;;;;;;1999.90;999.90;;;17.40;99.90;;;;;;5020188;28;20204;-64
2022/08/27 05:48:29;;;;;;;1999.90;999.90;;;17.40;99.90;;;;;;5013093;28;20266;-62
2022/08/27 05:50:57;;;;;;;1999.90;999.90;;;17.40;99.90;;;;;;5013210;28;20203;-64
2022/08/27 05:53:25;;;;;;;1999.90;999.90;;;17.50;99.90;;;;;;5012977;28;20206;-64
2022/08/27 05:55:52;;;;;;;1999.90;999.90;;;17.40;99.90;;;;;;5012660;28;20232;-65
2022/08/27 06:01:05;;;;;;;1999.90;999.90;;;17.50;99.90;;;;;;5012977;28;20184;-63
2022/08/27 06:03:33;;;;;;;1999.90;999.90;;;17.50;99.90;;;;;;5013237;28;20207;-63
2022/08/27 06:06:01;;;;;;;1999.90;999.90;;;17.50;99.90;;;;;;5012909;28;20189;-63
2022/08/27 06:08:28;;;;;;;1999.90;999.90;;;17.50;99.90;;;;;;5013105;28;20201;-64
2022/08/27 06:10:56;;;;;;;1999.90;999.90;;;17.60;99.90;;;;;;5013193;28;20207;-64
2022/08/27 06:13:24;;;;;;;1999.90;999.90;;;17.50;99.90;;;;;;5012716;28;20200;-64
2022/08/27 06:16:00;;;;;;;1999.90;999.90;;;17.50;99.90;;;;;;5012596;28;20223;-63
2022/08/27 06:18:27;;;;;;;1999.90;999.90;;;17.60;99.90;;;;;;5012468;28;20177;-64
2022/08/27 06:20:54;;;;;;;1999.90;999.90;;;17.50;99.90;;;;;;5012507;28;20761;-63
2022/08/27 06:23:21;;;;;;;1999.90;999.90;;;17.50;99.90;;;;;;5012495;28;20203;-64
2022/08/27 06:25:48;;;;;;;1999.90;999.90;;;17.60;99.90;;;;;;5012494;28;20192;-63
2022/08/27 06:28:15;;;;;;;1999.90;999.90;;;17.50;99.90;;;;;;5012534;28;20212;-64
2022/08/27 06:30:43;;;;;;;1999.90;999.90;;;17.60;99.90;;;;;;5012019;28;20204;-64
2022/08/27 06:33:10;;;;;;;1999.90;999.90;;;17.60;99.90;;;;;;5012480;28;20715;-64
2022/08/27 06:35:37;;;;;;;1999.90;999.90;;;17.60;99.90;;;;;;5012385;28;20196;-64
2022/08/27 06:38:04;;;;;;;1999.90;999.90;;;17.60;99.90;;;;;;5012433;28;20208;-65
2022/08/27 06:40:31;;;;;;;1999.90;999.90;;;17.60;99.90;;;;;;5012603;28;20207;-65
2022/08/27 06:42:59;;;;;;;1999.90;999.90;;;17.70;99.90;;;;;;5014911;28;21495;-64
2022/08/27 06:45:26;;;;;;;1999.90;999.90;;;17.70;99.90;;;;;;5032383;28;20199;-64
2022/08/27 06:47:56;;;;;;;1999.90;999.90;;;17.70;99.90;;;;;;5032110;28;20188;-64
2022/08/27 06:50:23;;;;;;;1999.90;999.90;;;17.70;99.90;;;;;;5032186;28;20206;-64
2022/08/27 06:52:50;;;;;;;1999.90;999.90;;;17.70;99.90;;;;;;5031991;28;20204;-64
2022/08/27 06:55:17;;;;;;;1999.90;999.90;;;17.70;99.90;;;;;;5031666;28;20196;-64
2022/08/27 06:57:44;;;;;;;1999.90;999.90;;;17.70;99.90;;;;;;5032160;28;20277;-64
2022/08/27 07:00:12;;;;;;;1999.90;999.90;;;17.70;99.90;;;;;;5031994;28;20676;-63
2022/08/27 07:02:40;;;;;;;1999.90;999.90;;;17.70;99.90;;;;;;5031585;28;20690;-64
2022/08/27 07:05:10;;;;;;;1999.90;999.90;;;17.80;99.90;;;;;;5031881;28;20208;-63
2022/08/27 07:07:37;;;;;;;1999.90;999.90;;;17.80;99.90;;;;;;5031965;28;20186;-64
2022/08/27 07:10:06;;;;;;;1999.90;999.90;;;17.90;99.90;;;;;;5032103;28;20209;-65
2022/08/27 07:12:33;;;;;;;1999.90;999.90;;;17.80;99.90;;;;;;5031835;28;20201;-64
2022/08/27 07:15:00;;;;;;;1999.90;999.90;;;17.80;99.90;;;;;;5032115;28;20236;-64
2022/08/27 07:17:27;;;;;;;1999.90;999.90;;;17.90;99.90;;;;;;5032010;28;20212;-65
2022/08/27 07:19:55;;;;;;;1999.90;999.90;;;17.90;99.90;;;;;;5031980;28;20200;-65
2022/08/27 07:22:23;;;;;;;1999.90;999.90;;;17.90;99.90;;;;;;5031703;28;20207;-65
2022/08/27 07:24:52;;;;;;;1999.90;999.90;;;17.90;99.90;;;;;;5031948;28;20227;-65
2022/08/27 07:27:20;;;;;;;1999.90;999.90;;;17.90;99.90;;;;;;5031711;28;20222;-64
2022/08/27 07:29:47;;;;;;;1999.90;999.90;;;18.00;99.90;;;;;;5031934;28;20207;-65
2022/08/27 07:32:14;;;;;;;1999.90;999.90;;;18.00;99.90;;;;;;5031953;28;20214;-64
2022/08/27 07:34:41;;;;;;;1999.90;999.90;;;18.00;99.90;;;;;;5031894;28;20200;-64
2022/08/27 07:37:08;;;;;;;1999.90;999.90;;;18.00;99.90;;;;;;5031610;28;20601;-64
2022/08/27 07:39:37;;;;;;;1999.90;999.90;;;18.10;99.90;;;;;;5031864;28;20204;-64
2022/08/27 07:44:49;;;;;;;1999.90;999.90;;;18.10;99.90;;;;;;5035102;28;20188;-64
2022/08/27 07:47:16;;;;;;;1999.90;999.90;;;18.30;99.90;;;;;;5034978;28;20196;-65
2022/08/27 07:49:43;;;;;;;1999.90;999.90;;;18.30;99.90;;;;;;5034901;28;20200;-64
2022/08/27 07:52:11;;;;;;;1999.90;999.90;;;18.30;99.90;;;;;;5035005;28;20673;-65
2022/08/27 07:54:40;;;;;;;1999.90;999.90;;;18.40;99.90;;;;;;5034875;28;20196;-65
2022/08/27 07:57:08;;;;;;;1999.90;999.90;;;18.40;99.90;;;;;;5034638;28;20232;-65
2022/08/27 07:59:35;;;;;;;1999.90;999.90;;;18.50;99.90;;;;;;5034862;28;20200;-65
2022/08/27 08:02:02;;;;;;;1999.90;999.90;;;18.60;99.90;;;;;;5034962;28;20200;-64
2022/08/27 08:04:29;;;;;;;1999.90;999.90;;;18.50;99.90;;;;;;5035027;28;20207;-64
2022/08/27 08:06:56;;;;;;;1999.90;999.90;;;18.50;99.90;;;;;;5035055;28;20202;-65
2022/08/27 08:09:23;;;;;;;1999.90;999.90;;;18.50;99.90;;;;;;5034648;28;20215;-65
2022/08/27 08:11:52;;;;;;;1999.90;999.90;;;18.60;99.90;;;;;;5035009;28;20208;-65
2022/08/27 08:14:20;;;;;;;1999.90;999.90;;;18.70;99.90;;;;;;5034907;28;20197;-64
2022/08/27 08:16:47;;;;;;;1999.90;999.90;;;18.80;99.90;;;;;;5034626;28;20226;-64
2022/08/27 08:19:14;;;;;;;1999.90;999.90;;;18.80;99.90;;;;;;5034802;28;20195;-65
2022/08/27 08:21:41;;;;;;;1999.90;999.90;;;18.90;99.90;;;;;;5034554;28;20196;-63
2022/08/27 08:24:08;;;;;;;1999.90;999.90;;;18.90;99.90;;;;;;5034323;28;20696;-65
2022/08/27 08:26:35;;;;;;;1999.90;999.90;;;19.00;99.90;;;;;;5034597;28;20197;-64
2022/08/27 08:29:04;;;;;;;1999.90;999.90;;;19.00;99.90;;;;;;5033892;28;20205;-67
2022/08/27 08:31:31;;;;;;;1999.90;999.90;;;19.10;99.90;;;;;;5034053;28;20204;-66
2022/08/27 08:33:58;;;;;;;1999.90;999.90;;;19.10;99.90;;;;;;5034126;28;20202;-67
2022/08/27 08:36:25;;;;;;;1999.90;999.90;;;19.10;99.90;;;;;;5034071;28;20204;-68
2022/08/27 08:38:53;;;;;;;1999.90;999.90;;;19.10;99.90;;;;;;5033895;28;20200;-67
2022/08/27 08:41:39;;;;;;;1999.90;999.90;;;19.20;99.90;;;;;;5033181;28;20612;-66
2022/08/27 08:44:29;;;;;;;1999.90;999.90;;;19.30;99.90;;;;;;5033239;28;20260;-66
2022/08/27 08:47:02;;;;;;;1999.90;999.90;;;19.20;99.90;;;;;;5032896;28;20188;-66
2022/08/27 08:49:35;;;;;;;1999.90;999.90;;;19.10;99.90;;;;;;5033018;28;20246;-65
2022/08/27 08:52:13;;;;;;;1999.90;999.90;;;19.30;99.90;;;;;;5034285;28;20263;-65
2022/08/27 08:54:40;;;;;;;1999.90;999.90;;;19.30;99.90;;;;;;5032934;28;20663;-68
2022/08/27 08:57:20;;;;;;;1999.90;999.90;;;19.30;99.90;;;;;;5033551;28;20232;-65
2022/08/27 08:59:57;;;;;;;1999.90;999.90;;;19.30;99.90;;;;;;5033683;28;20259;-66
2022/08/27 09:02:25;;;;;;;1999.90;999.90;;;19.50;99.90;;;;;;5033651;28;20184;-66
2022/08/27 09:04:52;;;;;;;1999.90;999.90;;;19.60;99.90;;;;;;5033718;28;20212;-66
2022/08/27 09:07:29;;;;;;;1999.90;999.90;;;19.60;99.90;;;;;;5033236;28;20202;-67
2022/08/27 09:10:03;;;;;;;1999.90;999.90;;;19.60;99.90;;;;;;5033863;28;20204;-64
2022/08/27 09:12:32;;;;;;;1999.90;999.90;;;19.70;99.90;;;;;;5033295;28;20181;-64
2022/08/27 09:15:07;;;;;;;1999.90;999.90;;;19.90;99.90;;;;;;5033368;28;20254;-64
2022/08/27 09:17:34;;;;;;;1999.90;999.90;;;19.90;99.90;;;;;;5033623;28;20202;-64
2022/08/27 09:20:01;;;;;;;1999.90;999.90;;;20.10;99.90;;;;;;5033509;28;20264;-62
2022/08/27 09:22:38;;;;;;;1999.90;999.90;;;20.20;99.90;;;;;;5032997;28;20234;-63
2022/08/27 09:25:14;;;;;;;1999.90;999.90;;;20.30;99.90;;;;;;5032817;28;20551;-61
2022/08/27 09:27:42;;;;;;;1999.90;999.90;;;20.40;99.90;;;;;;5033354;28;20184;-63
2022/08/27 09:30:19;;;;;;;1999.90;999.90;;;20.40;99.90;;;;;;5033246;28;20200;-63
2022/08/27 09:32:54;;;;;;;1999.90;999.90;;;20.60;99.90;;;;;;5032151;28;20551;-62
2022/08/27 09:35:21;;;;;;;1999.90;999.90;;;20.80;99.90;;;;;;5032761;28;20202;-63
2022/08/27 09:37:53;;;;;;;1999.90;999.90;;;20.50;99.90;;;;;;5032939;28;20226;-63
2022/08/27 09:40:27;;;;;;;1999.90;999.90;;;20.70;99.90;;;;;;5032969;28;20188;-65
2022/08/27 09:42:57;;;;;;;1999.90;999.90;;;20.80;99.90;;;;;;5032790;28;20199;-64
2022/08/27 09:45:28;;;;;;;1999.90;999.90;;;21.10;99.90;;;;;;5032192;28;20188;-64
2022/08/27 09:48:03;;;;;;;1999.90;999.90;;;21.20;99.90;;;;;;5031973;28;20688;-63
2022/08/27 09:50:35;;;;;;;1999.90;999.90;;;21.10;99.90;;;;;;5032947;28;20192;-63
2022/08/27 09:53:03;;;;;;;1999.90;999.90;;;20.90;99.90;;;;;;5032710;28;20592;-64
2022/08/27 09:55:39;;;;;;;1999.90;999.90;;;21.00;99.90;;;;;;5032690;28;20245;-65
2022/08/27 09:58:07;;;;;;;1999.90;999.90;;;21.00;99.90;;;;;;5032874;28;20208;-65
2022/08/27 10:00:40;;;;;;;1999.90;999.90;;;20.90;99.90;;;;;;5032566;28;20201;-63
2022/08/27 10:03:09;;;;;;;1999.90;999.90;;;21.00;99.90;;;;;;5032580;28;20191;-63
2022/08/27 10:05:39;;;;;;;1999.90;999.90;;;21.10;99.90;;;;;;5032059;28;20211;-62
2022/08/27 10:08:18;;;;;;;1999.90;999.90;;;21.40;99.90;;;;;;5032492;28;20693;-64
2022/08/27 10:10:55;;;;;;;1999.90;999.90;;;21.30;99.90;;;;;;5032455;28;20188;-63
2022/08/27 10:13:26;;;;;;;1999.90;999.90;;;21.40;99.90;;;;;;5032780;28;20540;-63
2022/08/27 10:16:32;;;;;;;1999.90;999.90;;;21.60;99.90;;;;;;5032738;28;20188;-63
2022/08/27 10:19:11;;;;;;;1999.90;999.90;;;21.60;99.90;;;;;;4951253;29;20602;-62
2022/08/27 10:21:46;;;;;;;1999.90;999.90;;;21.40;99.90;;;;;;4951794;29;20207;-61
2022/08/27 10:24:28;;;;;;;1999.90;999.90;;;21.60;96.40;;;;;;4951639;29;20592;-62
2022/08/27 10:27:08;;;;;;;1999.90;999.90;;;21.60;96.30;;;;;;4952132;29;20229;-61
2022/08/27 10:29:43;;;;;;;1999.90;999.90;;;21.80;79.50;;;;;;4951647;29;20207;-61
2022/08/27 10:32:26;;;;;;;1999.90;999.90;;;22.00;50.40;;;;;;4952082;29;20734;-62
2022/08/27 10:35:04;;;;;;;1999.90;999.90;;;22.10;34.30;;;;;;4952011;29;20211;-62
2022/08/27 10:37:41;;;;;;;1999.90;999.90;;;22.30;33.20;;;;;;4951978;29;20247;-62
2022/08/27 10:40:17;;;;;;;1999.90;999.90;;;22.20;13.90;;;;;;4951957;29;20621;-63
2022/08/27 10:42:55;;;;;;;1999.90;999.90;;;22.50;11.20;;;;;;4952110;29;20680;-63
2022/08/27 10:45:40;;;;;;;1999.90;999.90;;;22.40;1.00;;;;;;4951863;29;20709;-64
2022/08/27 10:48:17;;;;;;;1999.90;999.90;;;22.30;1.00;;;;;;4951936;29;20676;-62
2022/08/27 10:50:48;;;;;;;1999.90;999.90;;;22.30;1.00;;;;;;4951784;29;20209;-63
2022/08/27 10:53:25;;;;;;;1999.90;999.90;;;22.50;1.00;;;;;;4996064;28;20610;-65
2022/08/27 10:56:05;;;;;;;1999.90;999.90;;;22.50;1.00;;;;;;5031811;28;20747;-65
2022/08/27 10:58:45;;;;;;;1999.90;999.90;;;22.50;1.00;;;;;;5031935;28;20215;-64
2022/08/27 11:01:20;;;;;;;1999.90;999.90;;;22.60;1.00;;;;;;5032058;28;20190;-65
2022/08/27 11:03:54;;;;;;;1999.90;999.90;;;22.80;1.00;;;;;;5031957;28;20545;-63
2022/08/27 11:06:25;;;;;;;1999.90;999.90;;;22.80;1.00;;;;;;5032276;28;20180;-64
2022/08/27 11:08:57;;;;;;;1999.90;999.90;;;23.00;1.00;;;;;;5032209;28;20181;-65
2022/08/27 11:11:33;;;;;;;1999.90;999.90;;;23.10;1.00;;;;;;5032039;28;20184;-64
2022/08/27 11:14:01;;;;;;;1999.90;999.90;;;23.30;1.00;;;;;;5031922;28;20198;-64
2022/08/27 11:16:35;;;;;;;1999.90;999.90;;;23.30;1.00;;;;;;5033698;28;20198;-64
2022/08/27 11:19:11;;;;;;;1999.90;999.90;;;23.40;1.00;;;;;;5035508;28;20200;-64
2022/08/27 11:21:44;;;;;;;1999.90;999.90;;;23.40;1.00;;;;;;5035473;28;20184;-65
2022/08/27 11:24:23;;;;;;;1999.90;999.90;;;23.40;1.00;;;;;;5035423;28;20249;-64
2022/08/27 11:26:55;;;;;;;1999.90;999.90;;;23.50;1.00;;;;;;5035813;28;20533;-64
2022/08/27 11:29:30;;;;;;;1999.90;999.90;;;23.50;1.00;;;;;;5035411;28;20185;-64
2022/08/27 11:32:06;;;;;;;1999.90;999.90;;;23.60;1.00;;;;;;5035354;28;20184;-64
2022/08/27 11:34:40;;;;;;;1999.90;999.90;;;23.60;1.00;;;;;;5035325;28;20184;-65
2022/08/27 11:37:19;;;;;;;1999.90;999.90;;;23.50;1.00;;;;;;5035330;28;20197;-65
2022/08/27 11:40:13;;;;;;;1999.90;999.90;;;23.60;1.00;;;;;;5035558;28;20181;-65
2022/08/27 11:42:43;;;;;;;1999.90;999.90;;;23.80;1.00;;;;;;5035382;28;20185;-66
2022/08/27 11:45:20;;;;;;;1999.90;999.90;;;23.60;1.00;;;;;;5035175;28;20200;-66
2022/08/27 11:47:55;;;;;;;1999.90;999.90;;;23.70;1.00;;;;;;5035308;28;20191;-66
2022/08/27 11:50:25;;;;;;;1999.90;999.90;;;23.90;1.00;;;;;;5035162;28;20215;-67
2022/08/27 11:52:59;;;;;;;1999.90;999.90;;;24.00;1.00;;;;;;5035032;28;20184;-66
2022/08/27 11:55:30;;;;;;;1999.90;999.90;;;24.10;1.00;;;;;;5034943;28;20184;-67
2022/08/27 11:58:08;;;;;;;1999.90;999.90;;;24.10;1.00;;;;;;5035091;28;20212;-66
2022/08/27 12:00:37;;;;;;;1999.90;999.90;;;24.10;1.00;;;;;;5034844;28;20646;-65
2022/08/27 12:03:07;;;;;;;1999.90;999.90;;;24.30;1.00;;;;;;5035068;28;20211;-65
2022/08/27 12:05:41;;;;;;;1999.90;999.90;;;24.30;1.00;;;;;;5034773;28;20199;-64
2022/08/27 12:08:25;;;;;;;1999.90;999.90;;;24.20;1.00;;;;;;5034974;28;20181;-65
2022/08/27 12:11:07;;;;;;;1999.90;999.90;;;24.40;1.00;;;;;;5034981;28;20218;-65
2022/08/27 12:13:40;;;;;;;1999.90;999.90;;;24.40;1.00;;;;;;5034592;28;20575;-66
2022/08/27 12:16:16;;;;;;;1999.90;999.90;;;24.40;1.00;;;;;;5034875;28;20185;-71
2022/08/27 12:18:53;;;;;;;1999.90;999.90;;;24.90;1.00;;;;;;5034813;28;20249;-65
2022/08/27 12:21:30;;;;;;;1999.90;999.90;;;25.10;1.00;;;;;;5034634;28;20206;-67
2022/08/27 12:24:37;;;;;;;1999.90;999.90;;;24.90;1.00;;;;;;5034609;28;20189;-67